createdAt,value
2019-05-07T00:00:45.523Z,1013.57
2019-05-07T00:01:45.553Z,1013.54
2019-05-07T00:03:38.531Z,1013.53
2019-05-07T00:04:38.586Z,1013.52
2019-05-07T00:06:32.610Z,1013.53
2019-05-07T00:07:32.150Z,1013.53
2019-05-07T00:09:24.601Z,1013.51
2019-05-07T00:10:24.868Z,1013.50
2019-05-07T00:12:17.666Z,1013.53
2019-05-07T00:13:17.693Z,1013.47
2019-05-07T00:15:12.569Z,1013.48
2019-05-07T00:16:12.761Z,1013.49
2019-05-07T00:18:03.736Z,1013.48
2019-05-07T00:19:03.772Z,1013.52
2019-05-07T00:20:56.755Z,1013.49
2019-05-07T00:21:56.811Z,1013.49
2019-05-07T00:23:49.818Z,1013.48
2019-05-07T00:24:52.003Z,1013.45
2019-05-07T00:26:43.241Z,1013.41
2019-05-07T00:27:42.892Z,1013.41
2019-05-07T00:29:35.873Z,1013.42
2019-05-07T00:30:35.930Z,1013.40
2019-05-07T00:32:28.940Z,1013.45
2019-05-07T00:33:28.967Z,1013.42
2019-05-07T00:35:22.542Z,1013.41
2019-05-07T00:36:23.060Z,1013.43
2019-05-07T00:38:15.005Z,1013.43
2019-05-07T00:39:15.049Z,1013.43
2019-05-07T00:41:08.020Z,1013.44
2019-05-07T00:42:08.078Z,1013.42
2019-05-07T00:44:03.122Z,1013.43
2019-05-07T00:45:14.108Z,1013.42
2019-05-07T00:46:54.097Z,1013.38
2019-05-07T00:47:54.151Z,1013.41
2019-05-07T00:49:47.153Z,1013.45
2019-05-07T00:50:47.187Z,1013.43
2019-05-07T00:52:40.171Z,1013.43
2019-05-07T00:53:42.303Z,1013.44
2019-05-07T00:55:33.233Z,1013.48
2019-05-07T00:56:33.419Z,1013.45
2019-05-07T00:58:27.037Z,1013.47
2019-05-07T00:59:26.302Z,1013.46
2019-05-07T01:01:19.310Z,1013.44
2019-05-07T01:02:19.343Z,1013.44
2019-05-07T01:04:12.330Z,1013.41
2019-05-07T01:05:12.439Z,1013.44
2019-05-07T01:07:05.394Z,1013.43
2019-05-07T01:08:05.426Z,1013.41
2019-05-07T01:09:58.445Z,1013.39
2019-05-07T01:10:58.469Z,1013.45
2019-05-07T01:12:53.172Z,1013.43
2019-05-07T01:13:52.158Z,1013.43
2019-05-07T01:15:44.511Z,1013.44
2019-05-07T01:16:44.543Z,1013.44
2019-05-07T01:18:37.520Z,1013.45
2019-05-07T01:19:37.577Z,1013.42
2019-05-07T01:21:32.446Z,1013.40
2019-05-07T01:22:32.855Z,1013.39
2019-05-07T01:24:23.592Z,1013.38
2019-05-07T01:25:23.650Z,1013.43
2019-05-07T01:27:16.658Z,1013.41
2019-05-07T01:28:16.681Z,1013.41
2019-05-07T01:30:10.195Z,1013.40
2019-05-07T01:31:12.487Z,1013.41
2019-05-07T01:33:03.221Z,1013.40
2019-05-07T01:34:03.262Z,1013.37
2019-05-07T01:35:56.270Z,1013.38
2019-05-07T01:36:56.296Z,1013.36
2019-05-07T01:38:49.287Z,1013.35
2019-05-07T01:39:49.347Z,1013.35
2019-05-07T01:41:42.345Z,1013.36
2019-05-07T01:42:42.493Z,1013.36
2019-05-07T01:44:35.373Z,1013.34
2019-05-07T01:45:45.547Z,1013.34
2019-05-07T01:47:28.433Z,1013.39
2019-05-07T01:48:28.458Z,1013.39
2019-05-07T01:50:22.733Z,1013.39
2019-05-07T01:51:22.224Z,1013.39
2019-05-07T01:53:14.494Z,1013.38
2019-05-07T01:54:14.530Z,1013.40
2019-05-07T01:56:07.535Z,1013.42
2019-05-07T01:57:07.566Z,1013.39
2019-05-07T01:59:02.405Z,1013.34
2019-05-07T02:00:02.549Z,1013.33
2019-05-07T02:01:53.606Z,1013.35
2019-05-07T02:02:53.631Z,1013.35
2019-05-07T02:04:46.636Z,1013.35
2019-05-07T02:05:46.673Z,1013.39
2019-05-07T02:07:39.687Z,1013.40
2019-05-07T02:08:42.109Z,1013.38
2019-05-07T02:10:32.694Z,1013.37
2019-05-07T02:11:32.877Z,1013.35
2019-05-07T02:13:25.757Z,1013.38
2019-05-07T02:14:25.785Z,1013.38
2019-05-07T02:16:18.765Z,1013.41
2019-05-07T02:17:18.821Z,1013.39
2019-05-07T02:19:12.640Z,1013.40
2019-05-07T02:20:13.117Z,1013.46
2019-05-07T02:22:04.844Z,1013.41
2019-05-07T02:23:04.894Z,1013.40
2019-05-07T02:24:57.900Z,1013.41
2019-05-07T02:25:57.933Z,1013.44
2019-05-07T02:27:52.802Z,1013.41
2019-05-07T02:28:51.833Z,1013.42
2019-05-07T02:30:44.779Z,1013.38
2019-05-07T02:31:44.580Z,1013.37
2019-05-07T02:33:37.505Z,1013.37
2019-05-07T02:34:37.538Z,1013.35
2019-05-07T02:36:33.699Z,1013.29
2019-05-07T02:37:41.829Z,1013.32
2019-05-07T02:39:24.196Z,1013.30
2019-05-07T02:40:23.624Z,1013.29
2019-05-07T02:42:16.626Z,1013.28
2019-05-07T02:43:16.650Z,1013.25
2019-05-07T02:45:13.157Z,1013.23
2019-05-07T02:46:22.361Z,1013.26
2019-05-07T02:48:03.509Z,1013.28
2019-05-07T02:49:03.357Z,1013.29
2019-05-07T02:50:55.728Z,1013.29
2019-05-07T02:51:55.758Z,1013.35
2019-05-07T02:53:48.762Z,1013.33
2019-05-07T02:54:48.808Z,1013.35
2019-05-07T02:56:43.183Z,1013.33
2019-05-07T02:57:43.474Z,1013.34
2019-05-07T02:59:34.834Z,1013.33
2019-05-07T03:00:34.870Z,1013.36
2019-05-07T03:02:27.876Z,1013.31
2019-05-07T03:03:27.912Z,1013.34
2019-05-07T03:05:23.037Z,1013.33
2019-05-07T03:06:23.376Z,1013.29
2019-05-07T03:08:13.938Z,1013.31
2019-05-07T03:09:14.690Z,1013.30
2019-05-07T03:11:06.994Z,1013.32
2019-05-07T03:12:07.014Z,1013.32
2019-05-07T03:14:02.948Z,1013.31
2019-05-07T03:15:00.052Z,1013.31
2019-05-07T03:16:53.873Z,1013.31
2019-05-07T03:17:53.792Z,1013.26
2019-05-07T03:19:46.095Z,1013.28
2019-05-07T03:20:46.118Z,1013.20
2019-05-07T03:22:39.099Z,1013.22
2019-05-07T03:23:39.160Z,1013.22
2019-05-07T03:25:33.874Z,1013.19
2019-05-07T03:26:34.132Z,1013.15
2019-05-07T03:28:25.166Z,1013.14
2019-05-07T03:29:25.253Z,1013.17
2019-05-07T03:31:18.219Z,1013.15
2019-05-07T03:32:18.258Z,1013.15
2019-05-07T03:34:15.893Z,1013.17
2019-05-07T03:35:15.726Z,1013.14
2019-05-07T03:37:06.246Z,1013.15
2019-05-07T03:38:04.328Z,1013.13
2019-05-07T03:39:57.314Z,1013.14
2019-05-07T03:40:57.366Z,1013.10
2019-05-07T03:42:53.174Z,1013.11
2019-05-07T03:43:52.654Z,1013.12
2019-05-07T03:45:43.566Z,1013.17
2019-05-07T03:46:54.481Z,1013.13
2019-05-07T03:48:36.438Z,1013.12
2019-05-07T03:49:36.467Z,1013.16
2019-05-07T03:51:29.466Z,1013.19
2019-05-07T03:52:29.499Z,1013.18
2019-05-07T03:54:23.917Z,1013.20
2019-05-07T03:55:23.343Z,1013.21
2019-05-07T03:57:15.929Z,1013.20
2019-05-07T03:58:15.569Z,1013.20
2019-05-07T04:00:08.602Z,1013.26
2019-05-07T04:01:08.619Z,1013.24
2019-05-07T04:03:03.629Z,1013.25
2019-05-07T04:04:03.739Z,1013.27
2019-05-07T04:05:54.651Z,1013.25
2019-05-07T04:06:54.684Z,1013.26
2019-05-07T04:08:47.693Z,1013.31
2019-05-07T04:09:47.717Z,1013.30
2019-05-07T04:11:43.197Z,1013.26
2019-05-07T04:12:43.837Z,1013.24
2019-05-07T04:14:34.654Z,1013.26
2019-05-07T04:15:33.791Z,1013.26
2019-05-07T04:17:27.394Z,1013.21
2019-05-07T04:18:26.847Z,1013.23
2019-05-07T04:20:19.831Z,1013.20
2019-05-07T04:21:22.974Z,1013.18
2019-05-07T04:23:14.225Z,1013.22
2019-05-07T04:24:13.727Z,1013.23
2019-05-07T04:26:05.893Z,1013.22
2019-05-07T04:27:05.927Z,1013.24
2019-05-07T04:28:58.912Z,1013.23
2019-05-07T04:29:58.964Z,1013.27
2019-05-07T04:31:53.255Z,1013.28
2019-05-07T04:32:53.007Z,1013.29
2019-05-07T04:34:44.995Z,1013.28
2019-05-07T04:35:45.037Z,1013.29
2019-05-07T04:37:38.028Z,1013.31
2019-05-07T04:38:38.070Z,1013.29
2019-05-07T04:40:33.750Z,1013.27
2019-05-07T04:41:32.900Z,1013.27
2019-05-07T04:43:24.098Z,1013.28
2019-05-07T04:44:24.137Z,1013.32
2019-05-07T04:46:17.120Z,1013.32
2019-05-07T04:47:32.691Z,1013.31
2019-05-07T04:49:12.828Z,1013.34
2019-05-07T04:50:10.227Z,1013.28
2019-05-07T04:52:04.055Z,1013.27
2019-05-07T04:53:03.252Z,1013.28
2019-05-07T04:54:56.219Z,1013.31
2019-05-07T04:55:56.277Z,1013.31
2019-05-07T04:57:49.263Z,1013.32
2019-05-07T04:58:49.313Z,1013.32
2019-05-07T05:00:43.065Z,1013.31
2019-05-07T05:01:43.627Z,1013.35
2019-05-07T05:03:39.022Z,1013.33
2019-05-07T05:04:35.380Z,1013.33
2019-05-07T05:06:28.358Z,1013.28
2019-05-07T05:07:28.414Z,1013.26
2019-05-07T05:09:23.307Z,1013.25
2019-05-07T05:10:23.102Z,1013.28
2019-05-07T05:12:14.431Z,1013.24
2019-05-07T05:13:14.486Z,1013.23
2019-05-07T05:15:07.484Z,1013.22
2019-05-07T05:16:07.523Z,1013.26
2019-05-07T05:18:02.563Z,1013.27
2019-05-07T05:19:02.521Z,1013.27
2019-05-07T05:20:53.533Z,1013.30
2019-05-07T05:21:53.607Z,1013.32
2019-05-07T05:23:46.593Z,1013.33
2019-05-07T05:24:46.630Z,1013.32
2019-05-07T05:26:41.794Z,1013.39
2019-05-07T05:27:39.668Z,1013.39
2019-05-07T05:29:32.665Z,1013.35
2019-05-07T05:30:32.806Z,1013.33
2019-05-07T05:32:25.701Z,1013.30
2019-05-07T05:33:25.738Z,1013.32
2019-05-07T05:35:18.721Z,1013.38
2019-05-07T05:36:18.776Z,1013.34
2019-05-07T05:38:12.650Z,1013.35
2019-05-07T05:39:13.120Z,1013.33
2019-05-07T05:41:04.790Z,1013.32
2019-05-07T05:42:04.846Z,1013.30
2019-05-07T05:43:57.842Z,1013.34
2019-05-07T05:44:57.879Z,1013.33
2019-05-07T05:46:52.477Z,1013.38
2019-05-07T05:48:04.088Z,1013.41
2019-05-07T05:49:43.919Z,1013.38
2019-05-07T05:50:43.952Z,1013.39
2019-05-07T05:52:36.950Z,1013.39
2019-05-07T05:53:36.990Z,1013.39
2019-05-07T05:55:32.072Z,1013.40
2019-05-07T05:56:32.283Z,1013.36
2019-05-07T05:58:24.135Z,1013.36
2019-05-07T05:59:27.798Z,1013.32
2019-05-07T06:01:16.070Z,1013.32
2019-05-07T06:02:16.108Z,1013.32
2019-05-07T06:04:09.086Z,1013.28
2019-05-07T06:05:09.142Z,1013.30
2019-05-07T06:07:11.198Z,1013.35
2019-05-07T06:08:03.675Z,1013.29
2019-05-07T06:09:55.175Z,1013.31
2019-05-07T06:10:55.212Z,1013.33
2019-05-07T06:12:48.188Z,1013.31
2019-05-07T06:13:48.246Z,1013.31
2019-05-07T06:15:41.994Z,1013.34
2019-05-07T06:16:42.058Z,1013.33
2019-05-07T06:18:34.262Z,1013.36
2019-05-07T06:19:34.318Z,1013.39
2019-05-07T06:21:27.319Z,1013.38
2019-05-07T06:22:27.354Z,1013.38
2019-05-07T06:24:22.532Z,1013.36
2019-05-07T06:25:24.333Z,1013.35
2019-05-07T06:27:13.385Z,1013.36
2019-05-07T06:28:13.441Z,1013.36
2019-05-07T06:30:06.437Z,1013.41
2019-05-07T06:31:06.480Z,1013.33
2019-05-07T06:32:59.457Z,1013.39
2019-05-07T06:34:01.742Z,1013.38
2019-05-07T06:35:52.527Z,1013.42
2019-05-07T06:36:52.709Z,1013.38
2019-05-07T06:38:45.525Z,1013.38
2019-05-07T06:39:45.587Z,1013.37
2019-05-07T06:41:38.598Z,1013.36
2019-05-07T06:42:38.635Z,1013.35
2019-05-07T06:44:32.061Z,1013.31
2019-05-07T06:45:35.185Z,1013.34
2019-05-07T06:47:24.669Z,1013.37
2019-05-07T06:48:37.945Z,1013.34
2019-05-07T06:50:17.698Z,1013.40
2019-05-07T06:51:17.792Z,1013.42
2019-05-07T06:53:11.901Z,1013.41
2019-05-07T06:54:12.854Z,1013.43
2019-05-07T06:56:03.778Z,1013.40
2019-05-07T06:57:03.812Z,1013.44
2019-05-07T06:58:56.792Z,1013.43
2019-05-07T06:59:56.850Z,1013.39
2019-05-07T07:01:49.850Z,1013.41
2019-05-07T07:02:49.886Z,1013.43
2019-05-07T07:04:42.867Z,1013.42
2019-05-07T07:05:42.924Z,1013.40
2019-05-07T07:07:37.489Z,1013.38
2019-05-07T07:08:35.962Z,1013.37
2019-05-07T07:10:28.960Z,1013.36
2019-05-07T07:11:29.049Z,1013.39
2019-05-07T07:13:22.793Z,1013.37
2019-05-07T07:14:22.723Z,1013.36
2019-05-07T07:16:15.039Z,1013.43
2019-05-07T07:17:15.099Z,1013.44
2019-05-07T07:19:08.089Z,1013.38
2019-05-07T07:20:08.133Z,1013.40
2019-05-07T07:22:02.341Z,1013.38
2019-05-07T07:23:02.400Z,1013.40
2019-05-07T07:24:54.172Z,1013.39
2019-05-07T07:25:54.227Z,1013.39
2019-05-07T07:27:47.215Z,1013.38
2019-05-07T07:28:47.249Z,1013.38
2019-05-07T07:30:42.070Z,1013.37
2019-05-07T07:31:42.599Z,1013.40
2019-05-07T07:33:33.795Z,1013.37
2019-05-07T07:34:33.830Z,1013.37
2019-05-07T07:36:26.810Z,1013.36
2019-05-07T07:37:26.866Z,1013.37
2019-05-07T07:39:21.941Z,1013.38
2019-05-07T07:40:22.277Z,1013.37
2019-05-07T07:42:12.886Z,1013.34
2019-05-07T07:43:13.028Z,1013.35
2019-05-07T07:45:05.939Z,1013.30
2019-05-07T07:46:05.984Z,1013.29
2019-05-07T07:47:58.966Z,1013.31
2019-05-07T07:49:09.821Z,1013.28
2019-05-07T07:50:52.447Z,1013.29
2019-05-07T07:51:52.717Z,1013.32
2019-05-07T07:53:45.069Z,1013.34
2019-05-07T07:54:45.103Z,1013.38
2019-05-07T07:56:49.112Z,1013.38
2019-05-07T07:57:38.149Z,1013.42
2019-05-07T07:59:32.870Z,1013.51
2019-05-07T08:00:32.829Z,1013.47
2019-05-07T08:02:24.213Z,1013.49
2019-05-07T08:03:24.245Z,1013.45
2019-05-07T08:05:17.248Z,1013.48
2019-05-07T08:06:17.288Z,1013.53
2019-05-07T08:08:12.662Z,1013.49
2019-05-07T08:09:12.745Z,1013.51
2019-05-07T08:11:03.358Z,1013.44
2019-05-07T08:12:03.596Z,1013.48
2019-05-07T08:13:56.371Z,1013.53
2019-05-07T08:15:13.580Z,1013.55
2019-05-07T08:16:49.430Z,1013.61
2019-05-07T08:17:49.483Z,1013.70
2019-05-07T08:19:43.068Z,1013.50
2019-05-07T08:20:43.128Z,1013.47
2019-05-07T08:22:35.545Z,1013.50
2019-05-07T08:23:35.586Z,1013.50
2019-05-07T08:25:28.602Z,1013.44
2019-05-07T08:26:28.638Z,1013.47
2019-05-07T08:28:23.272Z,1013.43
2019-05-07T08:29:22.485Z,1013.44
2019-05-07T08:31:15.203Z,1013.35
2019-05-07T08:32:15.264Z,1013.35
2019-05-07T08:34:08.273Z,1013.37
2019-05-07T08:35:08.314Z,1013.36
2019-05-07T08:37:01.866Z,1013.40
2019-05-07T08:38:02.282Z,1013.45
2019-05-07T08:39:54.397Z,1013.47
2019-05-07T08:40:54.417Z,1013.50
2019-05-07T08:42:47.415Z,1013.48
2019-05-07T08:43:47.471Z,1013.31
2019-05-07T08:45:40.484Z,1013.50
2019-05-07T08:46:42.197Z,1013.44
2019-05-07T08:48:33.541Z,1013.44
2019-05-07T08:49:39.531Z,1013.25
2019-05-07T08:51:26.624Z,1013.22
2019-05-07T08:52:26.664Z,1013.27
2019-05-07T08:54:19.655Z,1013.34
2019-05-07T08:55:21.657Z,1013.43
2019-05-07T08:57:12.737Z,1013.41
2019-05-07T08:58:12.782Z,1013.43
2019-05-07T09:00:05.802Z,1013.31
2019-05-07T09:01:05.850Z,1013.13
2019-05-07T09:02:58.851Z,1013.12
2019-05-07T09:03:58.905Z,1013.09
2019-05-07T09:05:52.022Z,1013.43
2019-05-07T09:06:52.055Z,1013.16
2019-05-07T09:08:44.995Z,1013.04
2019-05-07T09:09:45.027Z,1013.08
2019-05-07T09:11:38.032Z,1013.39
2019-05-07T09:12:38.103Z,1013.36
2019-05-07T09:14:32.078Z,1013.00
2019-05-07T09:15:32.015Z,1013.02
2019-05-07T09:17:24.179Z,1013.01
2019-05-07T09:18:24.232Z,1012.99
2019-05-07T09:20:17.228Z,1012.98
2019-05-07T09:21:17.286Z,1012.94
2019-05-07T09:23:12.078Z,1013.00
2019-05-07T09:24:12.148Z,1012.98
2019-05-07T09:26:03.341Z,1012.96
2019-05-07T09:27:03.403Z,1012.97
2019-05-07T09:28:56.415Z,1012.99
2019-05-07T09:29:56.456Z,1012.97
2019-05-07T09:31:49.451Z,1012.93
2019-05-07T09:32:51.982Z,1012.94
2019-05-07T09:34:42.524Z,1012.94
2019-05-07T09:35:42.583Z,1012.92
2019-05-07T09:37:35.584Z,1012.90
2019-05-07T09:38:35.636Z,1012.84
2019-05-07T09:40:28.639Z,1012.88
2019-05-07T09:41:28.701Z,1012.81
2019-05-07T09:43:22.090Z,1012.82
2019-05-07T09:44:22.155Z,1012.80
2019-05-07T09:46:14.762Z,1012.82
2019-05-07T09:47:14.809Z,1012.77
2019-05-07T09:49:07.818Z,1012.73
2019-05-07T09:50:08.891Z,1012.77
2019-05-07T09:52:02.630Z,1012.74
2019-05-07T09:53:02.297Z,1012.73
2019-05-07T09:54:53.916Z,1012.69
2019-05-07T09:55:53.982Z,1012.74
2019-05-07T09:57:46.998Z,1012.65
2019-05-07T09:58:47.031Z,1012.64
2019-05-07T10:00:42.277Z,1012.67
2019-05-07T10:01:40.084Z,1012.72
2019-05-07T10:03:33.091Z,1012.69
2019-05-07T10:04:33.134Z,1012.66
2019-05-07T10:06:26.137Z,1012.63
2019-05-07T10:07:26.181Z,1012.67
2019-05-07T10:09:19.178Z,1012.63
2019-05-07T10:10:19.230Z,1012.60
2019-05-07T10:12:12.280Z,1012.56
2019-05-07T10:13:12.288Z,1012.57
2019-05-07T10:15:05.269Z,1012.50
2019-05-07T10:16:07.711Z,1012.48
2019-05-07T10:17:58.338Z,1012.47
2019-05-07T10:18:58.375Z,1012.44
2019-05-07T10:20:52.181Z,1012.46
2019-05-07T10:21:52.969Z,1012.38
2019-05-07T10:23:44.413Z,1012.39
2019-05-07T10:24:44.465Z,1012.37
2019-05-07T10:26:39.998Z,1012.36
2019-05-07T10:27:37.510Z,1012.41
2019-05-07T10:29:32.195Z,1012.37
2019-05-07T10:30:32.149Z,1012.36
2019-05-07T10:32:23.562Z,1012.37
2019-05-07T10:33:23.603Z,1012.37
2019-05-07T10:35:16.606Z,1012.35
2019-05-07T10:36:16.651Z,1012.35
2019-05-07T10:38:09.633Z,1012.34
2019-05-07T10:39:09.691Z,1012.32
2019-05-07T10:41:02.958Z,1012.34
2019-05-07T10:42:02.734Z,1012.34
2019-05-07T10:43:55.719Z,1012.31
2019-05-07T10:44:55.778Z,1012.30
2019-05-07T10:46:48.793Z,1012.31
2019-05-07T10:47:48.820Z,1012.33
2019-05-07T10:49:42.279Z,1012.33
2019-05-07T10:50:42.539Z,1012.32
2019-05-07T10:52:34.885Z,1012.28
2019-05-07T10:53:34.930Z,1012.32
2019-05-07T10:55:27.915Z,1012.25
2019-05-07T10:56:27.974Z,1012.21
2019-05-07T10:58:20.984Z,1012.16
2019-05-07T10:59:22.489Z,1012.18
2019-05-07T11:01:14.006Z,1012.18
2019-05-07T11:02:14.065Z,1012.19
2019-05-07T11:04:07.074Z,1012.16
2019-05-07T11:05:07.111Z,1012.14
2019-05-07T11:07:00.101Z,1012.10
2019-05-07T11:08:02.291Z,1012.05
2019-05-07T11:09:53.161Z,1012.15
2019-05-07T11:10:53.203Z,1012.12
2019-05-07T11:12:46.189Z,1012.05
2019-05-07T11:13:46.255Z,1012.03
2019-05-07T11:15:39.259Z,1012.01
2019-05-07T11:16:39.293Z,1011.97
2019-05-07T11:18:32.409Z,1011.99
2019-05-07T11:19:32.526Z,1011.99
2019-05-07T11:21:25.334Z,1011.96
2019-05-07T11:22:25.385Z,1011.92
2019-05-07T11:24:18.398Z,1011.93
2019-05-07T11:25:18.438Z,1011.93
2019-05-07T11:27:11.891Z,1011.90
2019-05-07T11:28:12.395Z,1011.89
2019-05-07T11:30:04.489Z,1011.88
2019-05-07T11:31:04.532Z,1011.83
2019-05-07T11:32:57.519Z,1011.80
2019-05-07T11:33:57.574Z,1011.84
2019-05-07T11:35:52.649Z,1011.84
2019-05-07T11:36:52.379Z,1011.82
2019-05-07T11:38:44.692Z,1011.77
2019-05-07T11:39:43.692Z,1011.81
2019-05-07T11:41:36.698Z,1011.78
2019-05-07T11:42:36.739Z,1011.74
2019-05-07T11:44:31.947Z,1011.71
2019-05-07T11:45:32.020Z,1011.71
2019-05-07T11:47:22.770Z,1011.73
2019-05-07T11:48:22.833Z,1011.72
2019-05-07T11:50:15.851Z,1011.67
2019-05-07T11:51:15.881Z,1011.70
2019-05-07T11:53:08.872Z,1011.67
2019-05-07T11:54:08.939Z,1011.66
2019-05-07T11:56:02.567Z,1011.65
2019-05-07T11:57:02.638Z,1011.60
2019-05-07T11:58:54.979Z,1011.64
2019-05-07T11:59:55.026Z,1011.62
2019-05-07T12:01:48.267Z,1011.60
2019-05-07T12:02:48.084Z,1011.63
2019-05-07T12:04:42.236Z,1011.53
2019-05-07T12:05:42.276Z,1011.58
2019-05-07T12:07:34.139Z,1011.57
2019-05-07T12:08:43.048Z,1011.49
2019-05-07T12:10:27.165Z,1011.50
2019-05-07T12:11:27.228Z,1011.52
2019-05-07T12:13:21.824Z,1011.48
2019-05-07T12:14:28.911Z,1011.48
2019-05-07T12:16:14.212Z,1011.40
2019-05-07T12:17:13.327Z,1011.40
2019-05-07T12:19:06.332Z,1011.37
2019-05-07T12:20:06.373Z,1011.34
2019-05-07T12:21:59.715Z,1011.30
2019-05-07T12:22:59.420Z,1011.30
2019-05-07T12:24:52.435Z,1011.26
2019-05-07T12:25:52.846Z,1011.28
2019-05-07T12:27:45.449Z,1011.26
2019-05-07T12:28:45.513Z,1011.24
2019-05-07T12:30:39.046Z,1011.26
2019-05-07T12:31:39.065Z,1011.26
2019-05-07T12:33:32.467Z,1011.25
2019-05-07T12:34:32.123Z,1011.26
2019-05-07T12:36:25.146Z,1011.23
2019-05-07T12:37:25.174Z,1011.25
2019-05-07T12:39:18.162Z,1011.25
2019-05-07T12:40:18.222Z,1011.25
2019-05-07T12:42:12.014Z,1011.21
2019-05-07T12:43:11.276Z,1011.21
2019-05-07T12:45:04.275Z,1011.21
2019-05-07T12:46:04.321Z,1011.22
2019-05-07T12:47:57.327Z,1011.21
2019-05-07T12:48:57.367Z,1011.22
2019-05-07T12:50:52.320Z,1011.20
2019-05-07T12:51:50.413Z,1011.24
2019-05-07T12:53:43.433Z,1011.21
2019-05-07T12:54:43.455Z,1011.19
2019-05-07T12:56:36.439Z,1011.23
2019-05-07T12:57:36.499Z,1011.13
2019-05-07T12:59:29.522Z,1011.10
2019-05-07T13:00:29.547Z,1011.11
2019-05-07T13:02:36.833Z,1011.05
2019-05-07T13:03:22.598Z,1011.05
2019-05-07T13:05:15.674Z,1011.03
2019-05-07T13:06:15.657Z,1011.03
2019-05-07T13:08:08.675Z,1010.99
2019-05-07T13:09:08.708Z,1011.03
2019-05-07T13:11:03.107Z,1011.00
2019-05-07T13:12:03.001Z,1011.01
2019-05-07T13:13:54.762Z,1011.00
2019-05-07T13:14:54.798Z,1011.03
2019-05-07T13:16:47.786Z,1010.99
2019-05-07T13:17:47.846Z,1010.99
2019-05-07T13:19:42.000Z,1010.99
2019-05-07T13:20:40.911Z,1010.98
2019-05-07T13:22:33.896Z,1010.96
2019-05-07T13:23:33.969Z,1010.97
2019-05-07T13:25:28.151Z,1010.97
2019-05-07T13:26:27.006Z,1010.98
2019-05-07T13:28:19.988Z,1011.00
2019-05-07T13:29:21.994Z,1011.01
2019-05-07T13:31:14.587Z,1010.94
2019-05-07T13:32:14.611Z,1010.93
2019-05-07T13:34:07.602Z,1010.91
2019-05-07T13:35:07.668Z,1010.90
2019-05-07T13:37:02.622Z,1010.89
2019-05-07T13:38:00.708Z,1010.92
2019-05-07T13:39:53.712Z,1010.91
2019-05-07T13:40:53.760Z,1010.87
2019-05-07T13:42:46.768Z,1010.83
2019-05-07T13:43:46.806Z,1010.85
2019-05-07T13:45:41.661Z,1010.80
2019-05-07T13:46:39.856Z,1010.82
2019-05-07T13:48:32.860Z,1010.77
2019-05-07T13:49:32.904Z,1010.78
2019-05-07T13:51:25.923Z,1010.85
2019-05-07T13:52:25.964Z,1010.82
2019-05-07T13:54:18.980Z,1010.85
2019-05-07T13:55:19.011Z,1010.81
2019-05-07T13:57:12.159Z,1010.81
2019-05-07T13:58:14.198Z,1010.79
2019-05-07T14:00:05.212Z,1010.81
2019-05-07T14:01:05.115Z,1010.81
2019-05-07T14:02:58.101Z,1010.83
2019-05-07T14:03:58.162Z,1010.81
2019-05-07T14:05:51.648Z,1010.77
2019-05-07T14:06:52.938Z,1010.76
2019-05-07T14:08:44.195Z,1010.78
2019-05-07T14:09:44.253Z,1010.74
2019-05-07T14:11:37.257Z,1010.79
2019-05-07T14:12:37.297Z,1010.78
2019-05-07T14:14:34.129Z,1010.73
2019-05-07T14:15:32.091Z,1010.72
2019-05-07T14:17:23.359Z,1010.76
2019-05-07T14:18:25.751Z,1010.77
2019-05-07T14:20:16.429Z,1010.72
2019-05-07T14:21:16.461Z,1010.73
2019-05-07T14:23:09.446Z,1010.66
2019-05-07T14:24:09.506Z,1010.64
2019-05-07T14:26:02.562Z,1010.65
2019-05-07T14:27:02.561Z,1010.62
2019-05-07T14:28:55.552Z,1010.63
2019-05-07T14:29:55.603Z,1010.58
2019-05-07T14:31:48.627Z,1010.52
2019-05-07T14:32:48.657Z,1010.52
2019-05-07T14:34:41.649Z,1010.49
2019-05-07T14:35:41.704Z,1010.47
2019-05-07T14:37:34.712Z,1010.46
2019-05-07T14:38:34.746Z,1010.46
2019-05-07T14:40:27.754Z,1010.41
2019-05-07T14:41:27.794Z,1010.43
2019-05-07T14:43:21.982Z,1010.44
2019-05-07T14:44:22.348Z,1010.44
2019-05-07T14:46:13.854Z,1010.40
2019-05-07T14:47:13.886Z,1010.38
2019-05-07T14:49:06.877Z,1010.36
2019-05-07T14:50:06.942Z,1010.36
2019-05-07T14:51:59.971Z,1010.35
2019-05-07T14:53:02.546Z,1010.34
2019-05-07T14:54:52.993Z,1010.32
2019-05-07T14:55:53.055Z,1010.31
2019-05-07T14:57:46.060Z,1010.30
2019-05-07T14:58:46.094Z,1010.25
2019-05-07T15:00:39.081Z,1010.24
2019-05-07T15:01:39.140Z,1010.27
2019-05-07T15:03:32.155Z,1010.21
2019-05-07T15:04:32.184Z,1010.20
2019-05-07T15:06:25.180Z,1010.14
2019-05-07T15:07:25.239Z,1010.13
2019-05-07T15:09:18.249Z,1010.12
2019-05-07T15:10:18.283Z,1010.15
2019-05-07T15:12:14.168Z,1010.09
2019-05-07T15:13:12.762Z,1010.14
2019-05-07T15:15:04.329Z,1010.16
2019-05-07T15:16:04.371Z,1010.11
2019-05-07T15:17:57.357Z,1010.04
2019-05-07T15:18:57.418Z,1010.01
2019-05-07T15:20:52.394Z,1010.03
2019-05-07T15:21:51.773Z,1010.00
2019-05-07T15:23:43.454Z,1009.99
2019-05-07T15:24:43.515Z,1009.92
2019-05-07T15:26:36.536Z,1009.90
2019-05-07T15:27:36.564Z,1009.93
2019-05-07T15:29:31.738Z,1009.93
2019-05-07T15:30:29.618Z,1009.91
2019-05-07T15:32:22.619Z,1009.86
2019-05-07T15:33:22.662Z,1009.84
2019-05-07T15:35:15.651Z,1009.84
2019-05-07T15:36:15.708Z,1009.83
2019-05-07T15:38:08.716Z,1009.79
2019-05-07T15:39:08.754Z,1009.80
2019-05-07T15:41:02.257Z,1009.78
2019-05-07T15:42:02.261Z,1009.74
2019-05-07T15:43:54.785Z,1009.72
2019-05-07T15:44:54.844Z,1009.74
2019-05-07T15:46:47.852Z,1009.65
2019-05-07T15:47:47.893Z,1009.69
2019-05-07T15:49:41.803Z,1009.68
2019-05-07T15:50:42.808Z,1009.66
2019-05-07T15:52:33.936Z,1009.66
2019-05-07T15:53:33.998Z,1009.69
2019-05-07T15:55:27.011Z,1009.68
2019-05-07T15:56:27.050Z,1009.69
2019-05-07T15:58:20.067Z,1009.60
2019-05-07T15:59:22.277Z,1009.63
2019-05-07T16:01:13.084Z,1009.59
2019-05-07T16:02:13.145Z,1009.57
2019-05-07T16:04:19.251Z,1009.56
2019-05-07T16:05:06.197Z,1009.53
2019-05-07T16:06:59.175Z,1009.53
2019-05-07T16:07:59.235Z,1009.54
2019-05-07T16:09:52.679Z,1009.52
2019-05-07T16:10:53.132Z,1009.47
2019-05-07T16:12:45.260Z,1009.49
2019-05-07T16:13:45.321Z,1009.48
2019-05-07T16:15:38.335Z,1009.45
2019-05-07T16:16:38.367Z,1009.45
2019-05-07T16:18:32.676Z,1009.45
2019-05-07T16:19:32.129Z,1009.42
2019-05-07T16:21:24.412Z,1009.46
2019-05-07T16:22:24.454Z,1009.39
2019-05-07T16:24:17.470Z,1009.38
2019-05-07T16:25:17.498Z,1009.35
2019-05-07T16:27:12.101Z,1009.36
2019-05-07T16:28:12.620Z,1009.35
2019-05-07T16:30:03.560Z,1009.31
2019-05-07T16:31:03.593Z,1009.30
2019-05-07T16:32:56.577Z,1009.29
2019-05-07T16:33:56.645Z,1009.26
2019-05-07T16:35:49.637Z,1009.24
2019-05-07T16:36:49.679Z,1009.26
2019-05-07T16:38:42.681Z,1009.18
2019-05-07T16:39:42.722Z,1009.16
2019-05-07T16:41:35.747Z,1009.16
2019-05-07T16:42:38.066Z,1009.16
2019-05-07T16:44:28.749Z,1009.13
2019-05-07T16:45:28.808Z,1009.10
2019-05-07T16:47:22.808Z,1009.08
2019-05-07T16:48:23.263Z,1009.02
2019-05-07T16:50:14.837Z,1009.04
2019-05-07T16:51:14.891Z,1009.02
2019-05-07T16:53:07.910Z,1008.99
2019-05-07T16:54:07.945Z,1009.01
2019-05-07T16:56:02.743Z,1009.02
2019-05-07T16:57:02.906Z,1008.98
2019-05-07T16:58:54.004Z,1008.96
2019-05-07T16:59:54.029Z,1008.95
2019-05-07T17:01:47.021Z,1008.96
2019-05-07T17:02:47.071Z,1008.96
2019-05-07T17:04:40.084Z,1008.96
2019-05-07T17:05:40.132Z,1008.93
2019-05-07T17:07:33.106Z,1008.95
2019-05-07T17:08:33.166Z,1008.93
2019-05-07T17:10:26.182Z,1008.85
2019-05-07T17:11:26.207Z,1008.87
2019-05-07T17:13:19.195Z,1008.88
2019-05-07T17:14:19.252Z,1008.87
2019-05-07T17:16:12.473Z,1008.84
2019-05-07T17:17:12.298Z,1008.84
2019-05-07T17:19:05.384Z,1008.82
2019-05-07T17:20:05.337Z,1008.84
2019-05-07T17:21:58.317Z,1008.83
2019-05-07T17:22:58.379Z,1008.79
2019-05-07T17:24:52.049Z,1008.80
2019-05-07T17:25:52.588Z,1008.83